Time;durP1;ratioP1;P1;durP2;ratioP2;P2;SDS_P1;SDS_P2;PMS_P1;PMS_P2;Temp;Humidity;BMP_temperature;BMP_pressure;BME280_temperature;BME280_humidity;BME280_pressure;Samples;Min_cycle;Max_cycle;Signal;HPM_P1;HPM_P2
2023/04/06 00:01:54;;;;;;;18.20;11.87;;;;;;;4.53;60.04;101615.16;5263372;28;20147;-72
2023/04/06 00:04:26;;;;;;;15.53;11.33;;;;;;;4.42;59.93;101614.00;5263646;28;20476;-73
2023/04/06 00:06:58;;;;;;;17.67;11.57;;;;;;;4.31;59.49;101612.00;5263506;28;20033;-72
2023/04/06 00:09:29;;;;;;;19.60;12.07;;;;;;;4.24;60.32;101615.25;5263172;28;20029;-73
2023/04/06 00:12:00;;;;;;;18.37;11.77;;;;;;;4.06;59.91;101607.00;5261981;28;20032;-72
2023/04/06 00:14:32;;;;;;;17.70;11.77;;;;;;;4.11;61.50;101608.91;5263385;28;20033;-72
2023/04/06 00:17:03;;;;;;;14.83;11.67;;;;;;;4.14;60.84;101602.97;5262176;28;20025;-72
2023/04/06 00:19:35;;;;;;;16.40;11.80;;;;;;;4.06;59.69;101613.06;5263170;28;20033;-73
2023/04/06 00:22:06;;;;;;;15.20;10.57;;;;;;;4.18;59.60;101602.19;5263356;28;20056;-72
2023/04/06 00:24:37;;;;;;;16.63;11.80;;;;;;;4.04;58.94;101600.94;5262497;28;20056;-72
2023/04/06 00:27:09;;;;;;;22.27;11.47;;;;;;;4.15;58.34;101602.09;5262107;28;20040;-72
2023/04/06 00:29:40;;;;;;;16.83;11.03;;;;;;;4.04;61.06;101595.78;5263005;28;20025;-73
2023/04/06 00:32:11;;;;;;;15.00;10.80;;;;;;;4.06;60.71;101594.13;5263302;28;20037;-72
2023/04/06 00:34:43;;;;;;;16.03;11.40;;;;;;;4.00;58.81;101590.53;5261733;28;20106;-72
2023/04/06 00:37:14;;;;;;;14.60;11.20;;;;;;;4.00;60.62;101593.13;5262685;28;20025;-73
2023/04/06 00:39:46;;;;;;;16.63;11.63;;;;;;;4.08;59.57;101589.91;5262564;28;20039;-73
2023/04/06 00:42:24;;;;;;;17.17;10.43;;;;;;;3.99;60.54;101582.75;5262813;28;20036;-72
2023/04/06 00:44:59;;;;;;;13.95;10.93;;;;;;;4.02;61.16;101580.25;5262737;28;20033;-72
2023/04/06 00:47:30;;;;;;;15.25;10.55;;;;;;;3.90;61.90;101585.13;5262657;28;20029;-73
2023/04/06 00:50:02;;;;;;;18.97;10.97;;;;;;;3.95;61.41;101580.94;5263011;28;20033;-71
2023/04/06 00:52:34;;;;;;;20.60;11.37;;;;;;;3.94;60.86;101567.16;5262569;28;20474;-70
2023/04/06 00:55:06;;;;;;;18.70;10.55;;;;;;;3.90;59.93;101567.91;5260916;28;20036;-69
2023/04/06 00:57:37;;;;;;;17.77;12.03;;;;;;;3.87;61.88;101578.16;5262523;28;20029;-72
2023/04/06 01:00:10;;;;;;;14.67;10.80;;;;;;;3.84;61.20;101571.19;5262334;28;20120;-71
2023/04/06 01:02:41;;;;;;;14.57;10.32;;;;;;;3.78;60.80;101570.16;5262494;28;20111;-72
2023/04/06 01:05:12;;;;;;;14.23;10.53;;;;;;;3.76;62.24;101559.78;5261248;28;20051;-72
2023/04/06 01:07:44;;;;;;;17.43;11.40;;;;;;;3.73;62.71;101559.72;5262165;28;20112;-72
2023/04/06 01:10:26;;;;;;;18.23;11.00;;;;;;;3.70;62.98;101558.75;5262550;28;20065;-72
2023/04/06 01:12:57;;;;;;;16.20;11.23;;;;;;;3.61;63.65;101554.22;5262060;28;20444;-72
2023/04/06 01:15:29;;;;;;;18.37;11.50;;;;;;;3.57;62.16;101558.41;5262259;28;20063;-71
2023/04/06 01:18:01;;;;;;;16.73;11.43;;;;;;;3.53;62.81;101553.16;5262130;28;20051;-72
2023/04/06 01:20:32;;;;;;;18.87;11.67;;;;;;;3.45;62.75;101542.59;5261861;28;20049;-71
2023/04/06 01:23:03;;;;;;;17.77;12.30;;;;;;;3.46;62.76;101546.91;5262030;28;20433;-71
2023/04/06 01:25:35;;;;;;;19.40;12.10;;;;;;;3.45;62.32;101548.63;5262285;28;20476;-71
2023/04/06 01:28:06;;;;;;;17.67;12.83;;;;;;;3.54;62.20;101549.72;5262339;28;20036;-71
2023/04/06 01:30:37;;;;;;;17.73;11.90;;;;;;;3.53;62.90;101542.84;5262237;28;20029;-71
2023/04/06 01:33:09;;;;;;;19.47;11.10;;;;;;;3.47;63.64;101544.38;5262252;28;20040;-71
2023/04/06 01:35:40;;;;;;;16.80;12.07;;;;;;;3.56;64.28;101542.88;5262127;28;20425;-71
2023/04/06 01:38:12;;;;;;;17.27;12.27;;;;;;;3.53;65.96;101541.13;5262891;28;20032;-71
2023/04/06 01:40:43;;;;;;;17.47;11.83;;;;;;;3.47;66.35;101536.66;5266456;28;20065;-72
2023/04/06 01:43:15;;;;;;;16.97;10.80;;;;;;;3.56;66.06;101532.56;5266307;28;20033;-72
2023/04/06 01:45:46;;;;;;;19.27;12.27;;;;;;;3.55;65.79;101531.72;5266320;28;20461;-72
2023/04/06 01:48:18;;;;;;;15.97;11.03;;;;;;;3.65;64.12;101528.56;5266687;28;20036;-72
2023/04/06 01:50:49;;;;;;;17.58;12.02;;;;;;;3.67;63.53;101523.47;5266134;28;20025;-72
2023/04/06 01:53:21;;;;;;;22.60;13.17;;;;;;;3.71;62.92;101522.69;5265479;28;20072;-72
2023/04/06 01:55:52;;;;;;;20.67;12.23;;;;;;;3.86;62.73;101521.38;5266018;28;20033;-72
2023/04/06 01:58:24;;;;;;;15.07;11.63;;;;;;;3.86;61.48;101509.34;5266039;28;20108;-72
2023/04/06 02:00:55;;;;;;;18.57;12.87;;;;;;;3.94;61.58;101512.13;5265937;28;20117;-72
2023/04/06 02:03:27;;;;;;;22.03;13.67;;;;;;;3.93;61.52;101498.38;5265879;28;20037;-72
2023/04/06 02:05:58;;;;;;;19.50;13.10;;;;;;;4.03;62.54;101496.88;5265967;28;20061;-72
2023/04/06 02:08:29;;;;;;;18.50;12.63;;;;;;;4.08;61.34;101499.59;5265896;28;20042;-72
2023/04/06 02:11:01;;;;;;;18.13;13.43;;;;;;;4.05;61.23;101502.09;5265762;28;20487;-71
2023/04/06 02:13:33;;;;;;;19.30;14.03;;;;;;;4.06;60.86;101493.50;5265408;28;20492;-72
2023/04/06 02:16:04;;;;;;;20.40;14.23;;;;;;;4.13;60.38;101503.16;5265547;28;20364;-71
2023/04/06 02:18:36;;;;;;;21.60;13.80;;;;;;;4.17;60.48;101487.78;5265626;28;20036;-71
2023/04/06 02:21:07;;;;;;;20.27;14.00;;;;;;;4.09;62.27;101491.88;5265441;28;20057;-72
2023/04/06 02:23:38;;;;;;;19.57;13.43;;;;;;;4.18;60.64;101488.66;5265109;28;20071;-72
2023/04/06 02:26:10;;;;;;;23.53;13.20;;;;;;;4.20;60.66;101481.81;5265150;28;20044;-72
2023/04/06 02:28:41;;;;;;;20.00;13.40;;;;;;;4.24;60.29;101481.06;5264661;28;20078;-72
2023/04/06 02:31:14;;;;;;;20.53;14.43;;;;;;;4.16;60.38;101483.44;5264641;28;20120;-73
2023/04/06 02:33:46;;;;;;;19.40;13.68;;;;;;;4.23;60.26;101481.88;5264595;28;20033;-72
2023/04/06 02:36:17;;;;;;;21.70;13.83;;;;;;;4.22;60.21;101475.00;5264492;28;20071;-71
2023/04/06 02:38:48;;;;;;;18.43;13.23;;;;;;;4.25;60.04;101464.75;5264613;28;20112;-71
2023/04/06 02:41:20;;;;;;;22.33;15.83;;;;;;;4.28;60.15;101466.53;5264127;28;20037;-72
2023/04/06 02:43:51;;;;;;;21.67;14.50;;;;;;;4.27;60.66;101465.66;5264440;28;20061;-72
2023/04/06 02:46:23;;;;;;;22.33;13.57;;;;;;;4.28;60.57;101463.94;5264539;28;20040;-72
2023/04/06 02:48:54;;;;;;;20.57;13.97;;;;;;;4.30;60.34;101465.72;5264537;28;20029;-72
2023/04/06 02:51:26;;;;;;;21.07;15.27;;;;;;;4.30;60.39;101463.16;5263618;28;20043;-72
2023/04/06 02:53:58;;;;;;;18.80;12.98;;;;;;;4.28;60.27;101456.19;5263793;28;20178;-73
2023/04/06 02:56:29;;;;;;;19.03;14.27;;;;;;;4.29;60.33;101447.63;5264144;28;20111;-72
2023/04/06 02:59:01;;;;;;;25.73;14.73;;;;;;;4.30;60.33;101450.25;5264199;28;20084;-71
2023/04/06 03:01:32;;;;;;;22.17;15.00;;;;;;;4.32;60.66;101450.28;5264189;28;20160;-71
2023/04/06 03:04:03;;;;;;;22.43;15.03;;;;;;;4.28;60.85;101457.09;5264659;28;20029;-71
2023/04/06 03:06:35;;;;;;;22.53;16.27;;;;;;;4.33;60.07;101446.84;5264915;28;20166;-71
2023/04/06 03:09:07;;;;;;;20.40;14.03;;;;;;;4.32;60.65;101442.53;5264784;28;20029;-71
2023/04/06 03:11:38;;;;;;;22.57;14.97;;;;;;;4.32;60.17;101443.41;5264746;28;20114;-72
2023/04/06 03:14:10;;;;;;;21.23;15.87;;;;;;;4.33;59.65;101442.56;5264383;28;20365;-70
2023/04/06 03:16:41;;;;;;;25.83;15.27;;;;;;;4.33;59.21;101440.00;5264435;28;20037;-70
2023/04/06 03:19:12;;;;;;;23.23;15.43;;;;;;;4.32;59.29;101445.97;5264267;28;20033;-70
2023/04/06 03:21:44;;;;;;;20.20;15.37;;;;;;;4.37;59.07;101441.78;5264594;28;20053;-70
2023/04/06 03:24:15;;;;;;;25.00;16.07;;;;;;;4.37;59.81;101439.22;5264079;28;20072;-70
2023/04/06 03:26:46;;;;;;;23.47;17.20;;;;;;;4.31;59.63;101430.47;5264047;28;20119;-71
2023/04/06 03:29:18;;;;;;;21.87;15.67;;;;;;;4.28;59.37;101431.28;5264347;28;20031;-70
2023/04/06 03:31:49;;;;;;;26.47;15.40;;;;;;;4.29;59.93;101427.84;5264292;28;20029;-70
2023/04/06 03:34:21;;;;;;;27.60;16.63;;;;;;;4.28;60.34;101428.69;5264169;28;20033;-70
2023/04/06 03:36:52;;;;;;;25.63;16.80;;;;;;;4.27;60.04;101420.91;5264094;28;20071;-70
2023/04/06 03:39:24;;;;;;;22.37;16.23;;;;;;;4.28;59.96;101427.81;5264049;28;20469;-70
2023/04/06 03:41:55;;;;;;;26.10;15.10;;;;;;;4.27;60.50;101420.91;5263993;28;20069;-70
2023/04/06 03:44:26;;;;;;;23.07;16.80;;;;;;;4.25;60.13;101427.72;5264155;28;20025;-70
2023/04/06 03:46:58;;;;;;;24.77;16.87;;;;;;;4.25;60.32;101426.03;5264044;28;20527;-70
2023/04/06 03:49:29;;;;;;;27.30;16.73;;;;;;;4.22;60.64;101425.06;5263902;28;20361;-70
2023/04/06 03:52:01;;;;;;;20.50;15.57;;;;;;;4.23;60.79;101425.13;5263884;28;20469;-70
2023/04/06 03:54:32;;;;;;;23.63;15.60;;;;;;;4.19;60.91;101419.00;5263085;28;20077;-70
2023/04/06 03:57:04;;;;;;;22.50;16.00;;;;;;;4.19;60.68;101428.47;5263613;28;20025;-70
2023/04/06 03:59:35;;;;;;;22.90;15.80;;;;;;;4.14;60.90;101418.03;5263679;28;20033;-70
2023/04/06 04:02:07;;;;;;;24.27;16.13;;;;;;;4.12;61.18;101421.41;5262375;28;20025;-71
2023/04/06 04:04:38;;;;;;;24.07;15.83;;;;;;;4.11;61.38;101419.69;5263302;28;20115;-71
2023/04/06 04:07:09;;;;;;;25.03;15.43;;;;;;;4.05;61.41;101425.56;5263598;28;20117;-70
2023/04/06 04:09:41;;;;;;;20.97;15.63;;;;;;;4.02;61.49;101420.31;5263813;28;20040;-70
2023/04/06 04:12:14;;;;;;;24.37;16.97;;;;;;;4.03;61.20;101416.91;5263211;28;20045;-70
2023/04/06 04:14:45;;;;;;;20.42;15.10;;;;;;;4.00;61.24;101422.84;5263269;28;20061;-71
2023/04/06 04:17:17;;;;;;;21.30;14.90;;;;;;;3.97;62.10;101417.63;5263337;28;20055;-70
2023/04/06 04:19:48;;;;;;;21.97;16.20;;;;;;;3.99;61.43;101430.56;5262067;28;20025;-69
2023/04/06 04:22:19;;;;;;;22.97;15.63;;;;;;;4.00;62.18;101428.00;5262793;28;20080;-69
2023/04/06 04:24:51;;;;;;;22.00;15.53;;;;;;;4.01;61.16;101411.72;5262534;28;20477;-69
2023/04/06 04:27:22;;;;;;;19.60;14.77;;;;;;;4.01;61.82;101421.16;5263109;28;20365;-69
2023/04/06 04:29:54;;;;;;;24.10;16.30;;;;;;;4.03;61.78;101421.22;5263111;28;20408;-69
2023/04/06 04:32:27;;;;;;;24.83;16.60;;;;;;;4.01;61.96;101416.00;5263018;28;20071;-70
2023/04/06 04:34:58;;;;;;;27.17;15.35;;;;;;;4.03;61.81;101424.66;5262928;28;20399;-69
2023/04/06 04:37:29;;;;;;;24.37;16.47;;;;;;;4.01;62.19;101424.63;5262866;28;20053;-69
2023/04/06 04:40:01;;;;;;;25.03;16.00;;;;;;;4.04;62.07;101417.78;5263027;28;20037;-69
2023/04/06 04:42:33;;;;;;;23.37;16.27;;;;;;;4.05;61.75;101420.38;5262850;28;20112;-69
2023/04/06 04:45:05;;;;;;;24.70;16.48;;;;;;;4.10;61.61;101420.50;5262580;28;20495;-69
2023/04/06 04:47:36;;;;;;;22.63;15.30;;;;;;;4.07;61.63;101420.44;5261419;28;20033;-70
2023/04/06 04:50:08;;;;;;;22.83;15.77;;;;;;;4.07;61.71;101404.94;5262498;28;20033;-69
2023/04/06 04:52:40;;;;;;;28.03;16.93;;;;;;;4.09;61.42;101411.00;5262170;28;20119;-69
2023/04/06 04:55:11;;;;;;;23.63;16.37;;;;;;;4.08;61.77;101407.56;5262176;28;20449;-69
2023/04/06 04:57:43;;;;;;;23.83;15.03;;;;;;;4.10;61.44;101405.03;5262444;28;20441;-69
2023/04/06 05:00:14;;;;;;;24.73;16.00;;;;;;;4.11;61.23;101399.91;5262174;28;20094;-69
2023/04/06 05:02:46;;;;;;;21.33;14.60;;;;;;;4.16;61.28;101402.59;5262589;28;20285;-69
2023/04/06 05:05:17;;;;;;;25.47;16.63;;;;;;;4.18;61.66;101400.91;5262117;28;20045;-69
2023/04/06 05:07:49;;;;;;;26.00;16.40;;;;;;;4.16;61.43;101397.44;5262173;28;20060;-69
2023/04/06 05:10:20;;;;;;;26.07;15.87;;;;;;;4.21;60.88;101406.16;5261900;28;20095;-69
2023/04/06 05:12:52;;;;;;;22.03;15.70;;;;;;;4.24;60.91;101413.09;5261649;28;20408;-69
2023/04/06 05:15:23;;;;;;;22.73;15.77;;;;;;;4.22;60.99;101407.00;5261884;28;20037;-69
2023/04/06 05:17:55;;;;;;;25.73;16.10;;;;;;;4.19;60.88;101403.53;5261872;28;20037;-69
2023/04/06 05:20:27;;;;;;;21.73;16.00;;;;;;;4.23;61.08;101406.19;5261670;28;20337;-70
2023/04/06 05:22:59;;;;;;;26.60;16.23;;;;;;;4.28;60.56;101407.16;5262306;28;20040;-69
2023/04/06 05:25:31;;;;;;;25.87;15.63;;;;;;;4.30;60.29;101406.38;5261323;28;20037;-70
2023/04/06 05:28:03;;;;;;;21.73;14.43;;;;;;;4.34;60.64;101407.31;5261731;28;20033;-70
2023/04/06 05:30:35;;;;;;;23.23;15.53;;;;;;;4.37;59.80;101405.66;5261714;28;20447;-70
2023/04/06 05:33:07;;;;;;;24.52;15.80;;;;;;;4.43;60.05;101404.03;5260450;28;20124;-70
2023/04/06 05:35:38;;;;;;;22.67;14.87;;;;;;;4.45;59.51;101407.56;5262048;28;20484;-70
2023/04/06 05:38:10;;;;;;;23.57;15.07;;;;;;;4.48;59.47;101407.63;5261566;28;20036;-69
2023/04/06 05:40:41;;;;;;;22.87;16.27;;;;;;;4.51;59.07;101403.41;5261507;28;20025;-70
2023/04/06 05:43:12;;;;;;;32.57;16.50;;;;;;;4.51;59.35;101405.13;5260547;28;20432;-70
2023/04/06 05:45:45;;;;;;;23.13;15.53;;;;;;;4.57;58.73;101400.94;5262055;28;20037;-70
2023/04/06 05:48:16;;;;;;;22.00;14.85;;;;;;;4.59;58.85;101401.00;5260169;28;20072;-70
2023/04/06 05:50:50;;;;;;;22.33;15.40;;;;;;;4.63;59.21;101396.75;5261608;28;20028;-70
2023/04/06 05:53:21;;;;;;;21.90;16.08;;;;;;;4.65;58.64;101397.66;5261315;28;20018;-70
2023/04/06 05:55:53;;;;;;;21.97;15.70;;;;;;;4.68;58.85;101389.97;5261743;28;20118;-69
2023/04/06 05:58:24;;;;;;;21.63;15.20;;;;;;;4.78;58.47;101401.38;5260329;28;20029;-70
2023/04/06 06:00:59;;;;;;;19.60;14.07;;;;;;;4.83;58.41;101399.75;5260632;28;20056;-70
2023/04/06 06:03:31;;;;;;;22.05;16.13;;;;;;;4.86;58.32;101397.22;5261455;28;20481;-69
2023/04/06 06:06:04;;;;;;;23.10;15.23;;;;;;;4.91;58.18;101400.75;5260013;28;20039;-68
2023/04/06 06:08:35;;;;;;;;;;;;;;;5.04;57.54;101394.13;5261978;28;20041;-69
2023/04/06 06:11:06;;;;;;;21.05;14.25;;;;;;;5.00;58.41;101413.03;5261682;28;19916;-69
2023/04/06 06:13:38;;;;;;;24.30;15.97;;;;;;;5.09;57.33;101408.03;5261344;28;20035;-69
2023/04/06 06:16:09;;;;;;;23.13;15.70;;;;;;;5.11;56.88;101412.38;5260075;28;20079;-69
2023/04/06 06:18:41;;;;;;;24.83;14.37;;;;;;;5.18;56.77;101409.91;5261650;28;20056;-69
2023/04/06 06:21:12;;;;;;;23.73;14.27;;;;;;;5.19;56.69;101403.91;5261250;28;20053;-69
2023/04/06 06:23:43;;;;;;;27.37;14.60;;;;;;;5.30;56.85;101405.00;5260874;28;20103;-70
2023/04/06 06:26:15;;;;;;;26.77;15.53;;;;;;;5.31;56.67;101406.72;5263966;28;20383;-69
2023/04/06 06:28:46;;;;;;;29.20;13.93;;;;;;;5.37;56.60;101406.84;5264532;28;20107;-70
2023/04/06 06:31:20;;;;;;;22.40;13.97;;;;;;;5.39;56.85;101399.97;5263114;28;20028;-69
2023/04/06 06:33:52;;;;;;;22.50;14.90;;;;;;;5.38;56.55;101412.91;5263217;28;20029;-69
2023/04/06 06:36:25;;;;;;;25.45;16.45;;;;;;;5.33;56.57;101410.22;5264432;28;20040;-71
2023/04/06 06:38:58;;;;;;;22.13;15.23;;;;;;;5.37;56.75;101409.41;5264435;28;20369;-70
2023/04/06 06:41:29;;;;;;;26.55;15.13;;;;;;;5.36;56.68;101405.13;5264338;28;20508;-69
2023/04/06 06:44:01;;;;;;;26.53;15.33;;;;;;;5.43;56.56;101416.44;5264137;28;20040;-69
2023/04/06 06:46:32;;;;;;;22.20;15.30;;;;;;;5.40;56.90;101406.03;5264133;28;20056;-69
2023/04/06 06:49:03;;;;;;;24.37;17.73;;;;;;;5.43;57.18;101396.63;5264222;28;20033;-70
2023/04/06 06:51:35;;;;;;;28.57;15.63;;;;;;;5.53;57.21;101408.00;5264007;28;20037;-69
2023/04/06 06:54:06;;;;;;;23.90;15.50;;;;;;;5.57;56.60;101399.47;5263636;28;20060;-69
2023/04/06 06:56:38;;;;;;;22.70;15.80;;;;;;;5.63;56.65;101404.72;5262872;28;20043;-70
2023/04/06 06:59:10;;;;;;;23.40;15.07;;;;;;;5.65;56.09;101402.16;5263917;28;20033;-69
2023/04/06 07:01:41;;;;;;;23.87;16.33;;;;;;;5.69;56.05;101403.97;5262604;28;20033;-70
2023/04/06 07:04:13;;;;;;;26.87;16.10;;;;;;;5.77;56.43;101394.59;5263872;28;20029;-69
2023/04/06 07:06:44;;;;;;;28.57;15.23;;;;;;;5.84;56.11;101393.88;5264203;28;20037;-69
2023/04/06 07:09:16;;;;;;;21.33;15.10;;;;;;;5.89;55.65;101403.41;5263524;28;20037;-69
2023/04/06 07:11:47;;;;;;;23.20;15.83;;;;;;;5.99;55.77;101402.78;5263828;28;20035;-69
2023/04/06 07:14:19;;;;;;;23.73;15.43;;;;;;;5.96;55.10;101397.50;5263444;28;20445;-70
2023/04/06 07:16:50;;;;;;;18.93;14.57;;;;;;;6.11;55.62;101402.94;5263627;28;20374;-70
2023/04/06 07:19:22;;;;;;;23.70;15.40;;;;;;;6.13;54.58;101401.25;5263547;28;20069;-69
2023/04/06 07:21:54;;;;;;;25.20;15.67;;;;;;;6.13;54.79;101400.38;5263253;28;20053;-69
2023/04/06 07:24:26;;;;;;;22.10;14.33;;;;;;;6.19;55.14;101403.94;5263186;28;20033;-70
2023/04/06 07:27:00;;;;;;;22.20;14.38;;;;;;;6.22;55.03;101404.84;5263456;28;20172;-70
2023/04/06 07:29:31;;;;;;;29.10;15.27;;;;;;;6.17;55.00;101397.88;5262219;28;20029;-70
2023/04/06 07:32:03;;;;;;;26.60;14.17;;;;;;;6.27;55.04;101398.00;5263928;28;20133;-70
2023/04/06 07:34:34;;;;;;;26.07;15.03;;;;;;;6.26;55.02;101393.69;5263966;28;20376;-69
2023/04/06 07:37:06;;;;;;;24.20;14.20;;;;;;;6.36;54.89;101392.97;5263921;28;20040;-68
2023/04/06 07:39:37;;;;;;;26.20;14.03;;;;;;;6.38;55.44;101399.03;5263647;28;20021;-69
2023/04/06 07:42:09;;;;;;;24.93;16.00;;;;;;;6.51;54.70;101398.34;5263808;28;20037;-69
2023/04/06 07:44:40;;;;;;;28.10;15.23;;;;;;;6.53;54.49;101395.78;5262380;28;20025;-69
2023/04/06 07:47:11;;;;;;;20.97;15.70;;;;;;;6.57;54.47;101395.84;5263830;28;20043;-69
2023/04/06 07:49:43;;;;;;;26.30;14.93;;;;;;;6.60;55.00;101392.44;5263873;28;20065;-70
2023/04/06 07:52:14;;;;;;;21.97;16.40;;;;;;;6.56;54.88;101386.34;5263581;28;20477;-69
2023/04/06 07:54:46;;;;;;;26.27;15.23;;;;;;;6.59;54.99;101395.03;5261594;28;20457;-69
2023/04/06 07:57:18;;;;;;;25.67;14.63;;;;;;;6.65;55.37;101393.38;5263034;28;20080;-69
2023/04/06 07:59:49;;;;;;;21.27;14.60;;;;;;;6.66;55.70;101394.22;5263647;28;20354;-69
2023/04/06 08:02:21;;;;;;;21.50;16.43;;;;;;;6.55;55.73;101389.78;5263434;28;20029;-71
2023/04/06 08:04:52;;;;;;;20.23;14.57;;;;;;;6.70;56.06;101394.28;5261914;28;20027;-69
2023/04/06 08:07:23;;;;;;;26.00;15.97;;;;;;;6.87;55.49;101401.41;5263374;28;20505;-71
2023/04/06 08:09:55;;;;;;;21.90;14.43;;;;;;;6.86;55.68;101391.88;5263302;28;20108;-69
2023/04/06 08:12:26;;;;;;;21.37;16.23;;;;;;;6.96;55.63;101391.16;5263295;28;20036;-69
2023/04/06 08:14:59;;;;;;;23.40;16.70;;;;;;;6.98;55.47;101389.44;5263130;28;20041;-68
2023/04/06 08:17:32;;;;;;;19.30;14.35;;;;;;;7.15;55.59;101388.75;5263081;28;20124;-69
2023/04/06 08:20:04;;;;;;;23.55;15.15;;;;;;;7.25;55.54;101399.25;5263064;28;20576;-69
2023/04/06 08:22:35;;;;;;;24.43;16.50;;;;;;;7.37;55.12;101389.88;5262592;28;20081;-68
2023/04/06 08:25:07;;;;;;;27.87;15.23;;;;;;;7.44;54.64;101399.47;5262663;28;20048;-69
2023/04/06 08:27:38;;;;;;;25.37;15.40;;;;;;;7.50;54.61;101402.09;5262565;28;20098;-69
2023/04/06 08:30:10;;;;;;;23.07;14.23;;;;;;;7.53;55.00;101393.47;5262901;28;20365;-69
2023/04/06 08:32:41;;;;;;;22.57;14.87;;;;;;;7.64;54.66;101395.31;5261505;28;20028;-69
2023/04/06 08:35:13;;;;;;;22.57;16.30;;;;;;;7.61;55.06;101397.88;5262595;28;20112;-69
2023/04/06 08:37:45;;;;;;;25.50;15.17;;;;;;;7.61;54.86;101402.22;5262776;28;20029;-70
2023/04/06 08:40:16;;;;;;;19.17;15.20;;;;;;;7.54;55.29;101403.88;5262676;28;20040;-69
2023/04/06 08:43:01;;;;;;;24.93;15.70;;;;;;;7.58;55.75;101408.25;5262641;28;20133;-69
2023/04/06 08:45:33;;;;;;;22.10;15.73;;;;;;;7.61;55.68;101400.47;5262718;28;20040;-70
2023/04/06 08:48:06;;;;;;;20.13;14.70;;;;;;;7.66;55.92;101405.72;5262194;28;20028;-69
2023/04/06 08:50:38;;;;;;;20.30;15.43;;;;;;;7.83;56.02;101404.13;5262562;28;20469;-69
2023/04/06 08:53:11;;;;;;;23.60;15.23;;;;;;;7.94;56.17;101405.97;5262718;28;20108;-69
2023/04/06 08:55:44;;;;;;;21.35;16.27;;;;;;;7.94;55.42;101403.38;5261765;28;20120;-70
2023/04/06 08:58:15;;;;;;;23.98;15.13;;;;;;;8.05;55.85;101406.91;5261313;28;20532;-70
2023/04/06 09:00:47;;;;;;;22.57;15.40;;;;;;;8.02;56.23;101405.16;5262403;28;20166;-69
2023/04/06 09:03:20;;;;;;;27.73;15.87;;;;;;;8.06;56.43;101400.84;5262492;28;20048;-69
2023/04/06 09:05:51;;;;;;;25.75;16.10;;;;;;;8.26;56.48;101403.59;5260960;28;20283;-70
2023/04/06 09:08:23;;;;;;;27.63;16.23;;;;;;;8.42;56.51;101407.16;5262408;28;20036;-69
2023/04/06 09:10:54;;;;;;;24.13;15.63;;;;;;;8.53;56.67;101402.06;5262411;28;20029;-69
2023/04/06 09:13:26;;;;;;;27.77;16.63;;;;;;;8.51;56.75;101412.44;5262277;28;20480;-70
2023/04/06 09:16:08;;;;;;;22.13;15.53;;;;;;;8.65;56.98;101406.47;5262156;28;20469;-69
2023/04/06 09:18:40;;;;;;;26.02;16.30;;;;;;;8.78;57.27;101410.00;5260976;28;20025;-70
2023/04/06 09:21:12;;;;;;;22.03;16.07;;;;;;;8.73;57.76;101416.03;5262092;28;20040;-70
2023/04/06 09:23:43;;;;;;;24.63;16.90;;;;;;;8.56;60.31;101410.75;5262013;28;20352;-70
2023/04/06 09:26:16;;;;;;;23.63;16.80;;;;;;;8.54;61.61;101415.06;5262286;28;20529;-70
2023/04/06 09:28:50;;;;;;;19.92;14.85;;;;;;;8.42;61.61;101406.28;5262112;28;20461;-70
2023/04/06 09:31:24;;;;;;;21.42;14.35;;;;;;;8.19;62.33;101410.50;5262123;28;20388;-70
2023/04/06 09:33:57;;;;;;;20.02;15.05;;;;;;;8.33;64.40;101407.97;5260847;28;20037;-70
2023/04/06 09:36:33;;;;;;;25.48;14.75;;;;;;;8.45;63.40;101409.78;5262038;28;20330;-69
2023/04/06 09:39:06;;;;;;;25.90;15.02;;;;;;;8.65;64.41;101409.06;5260842;28;20025;-70
2023/04/06 09:41:37;;;;;;;20.17;15.07;;;;;;;8.78;62.60;101405.66;5262288;28;20438;-70
2023/04/06 09:44:10;;;;;;;22.97;14.87;;;;;;;8.87;62.09;101410.00;5262127;28;20029;-70
2023/04/06 09:46:45;;;;;;;21.80;14.30;;;;;;;8.81;61.54;101412.63;5261965;28;20071;-69
2023/04/06 09:49:18;;;;;;;19.45;13.98;;;;;;;8.89;62.01;101410.91;5261910;28;20116;-70
2023/04/06 09:51:56;;;;;;;16.55;14.25;;;;;;;8.86;62.55;101410.91;5261586;28;20078;-70
2023/04/06 09:54:31;;;;;;;18.23;13.40;;;;;;;8.83;62.93;101413.47;5261373;28;20086;-70
2023/04/06 09:57:32;;;;;;;18.95;12.95;;;;;;;8.86;63.52;101416.94;5261575;28;20044;-70
2023/04/06 10:00:11;;;;;;;17.48;12.35;;;;;;;8.65;65.33;101412.53;5255323;28;20037;-69
2023/04/06 10:03:07;;;;;;;17.58;11.55;;;;;;;8.70;66.60;101416.00;5265892;28;20033;-69
2023/04/06 10:05:54;;;;;;;16.33;11.32;;;;;;;8.60;69.27;101410.75;5265430;28;20032;-69
2023/04/06 10:08:28;;;;;;;17.05;12.40;;;;;;;8.50;70.24;101407.22;5265865;28;20354;-70
2023/04/06 10:11:00;;;;;;;17.77;12.20;;;;;;;8.48;70.14;101414.16;5265729;28;20021;-69
2023/04/06 10:13:32;;;;;;;16.90;10.18;;;;;;;8.43;70.88;101411.53;5265774;28;20029;-69
2023/04/06 10:16:04;;;;;;;16.97;11.73;;;;;;;8.36;73.33;101415.78;5265610;28;20111;-69
2023/04/06 10:18:39;;;;;;;14.23;10.82;;;;;;;8.36;73.89;101410.59;5265670;28;20139;-69
2023/04/06 10:21:14;;;;;;;14.00;10.23;;;;;;;8.33;74.74;101407.09;5265351;28;20360;-70
2023/04/06 10:23:52;;;;;;;13.57;10.40;;;;;;;8.35;76.21;101414.03;5265403;28;20376;-70
2023/04/06 10:26:23;;;;;;;19.83;10.98;;;;;;;8.34;76.37;101414.91;5265302;28;20029;-70
2023/04/06 10:28:55;;;;;;;16.00;11.17;;;;;;;8.39;76.71;101407.16;5264602;28;20029;-70
2023/04/06 10:31:28;;;;;;;15.23;10.20;;;;;;;8.56;75.37;101409.88;5264565;28;20036;-73
2023/04/06 10:34:01;;;;;;;14.25;9.55;;;;;;;8.55;75.41;101414.19;5264631;28;20037;-70
2023/04/06 10:36:33;;;;;;;15.02;10.63;;;;;;;8.48;74.58;101419.34;5264523;28;20457;-70
2023/04/06 10:39:06;;;;;;;13.75;9.98;;;;;;;8.35;76.00;101411.44;5264526;28;20029;-70
2023/04/06 10:41:46;;;;;;;13.50;9.18;;;;;;;8.23;77.63;101419.16;5264436;28;20033;-72
2023/04/06 10:44:24;;;;;;;13.68;9.80;;;;;;;8.18;79.31;101413.06;5264368;28;20127;-70
2023/04/06 10:47:00;;;;;;;13.50;10.05;;;;;;;8.16;82.92;101406.97;5264046;28;20086;-70
2023/04/06 10:49:31;;;;;;;12.70;9.32;;;;;;;8.15;83.25;101408.72;5262995;28;20045;-69
2023/04/06 10:52:03;;;;;;;14.93;9.40;;;;;;;8.24;82.51;101407.91;5262915;28;20546;-70
2023/04/06 10:54:38;;;;;;;9.37;7.90;;;;;;;8.13;82.46;101407.84;5263629;28;20476;-71
2023/04/06 10:57:10;;;;;;;14.07;8.32;;;;;;;8.06;86.98;101402.59;5263891;28;20128;-70
2023/04/06 10:59:44;;;;;;;16.23;8.10;;;;;;;7.89;87.30;101398.13;5264261;28;20033;-70
2023/04/06 11:02:21;;;;;;;10.02;8.35;;;;;;;7.71;87.00;101387.59;5264117;28;20033;-71
2023/04/06 11:04:59;;;;;;;12.75;8.75;;;;;;;7.72;87.47;101391.94;5264930;28;20040;-71
2023/04/06 11:07:30;;;;;;;10.25;7.75;;;;;;;7.88;88.12;101391.19;5264755;28;20037;-70
2023/04/06 11:10:02;;;;;;;10.77;8.27;;;;;;;7.96;87.26;101389.53;5265889;28;20025;-70
2023/04/06 11:12:34;;;;;;;13.37;8.37;;;;;;;8.04;87.26;101387.84;5264976;28;20037;-70
2023/04/06 11:15:06;;;;;;;10.75;8.50;;;;;;;7.98;87.19;101390.41;5268002;28;20626;-71
2023/04/06 11:17:37;;;;;;;14.40;9.50;;;;;;;7.83;87.64;101393.75;5268659;28;20223;-71
2023/04/06 11:20:11;;;;;;;11.23;8.80;;;;;;;7.72;88.45;101389.34;5269945;28;20104;-70
2023/04/06 11:22:52;;;;;;;11.75;9.18;;;;;;;7.60;90.09;101384.88;5270130;28;20049;-71
2023/04/06 11:25:24;;;;;;;13.25;10.52;;;;;;;7.56;91.63;101380.53;5270026;28;20354;-71
2023/04/06 11:27:55;;;;;;;13.38;9.65;;;;;;;7.49;92.67;101384.81;5270702;28;20036;-70
2023/04/06 11:30:27;;;;;;;11.73;9.83;;;;;;;7.63;93.28;101380.63;5270200;28;20064;-70
2023/04/06 11:33:02;;;;;;;10.17;8.63;;;;;;;7.89;92.34;101369.59;5272594;28;20029;-72
2023/04/06 11:35:33;;;;;;;10.20;8.85;;;;;;;7.95;91.20;101360.97;5271716;28;20033;-70
2023/04/06 11:38:05;;;;;;;10.50;8.40;;;;;;;7.99;90.79;101360.13;5271926;28;20104;-69
2023/04/06 11:40:37;;;;;;;11.33;9.67;;;;;;;8.26;91.15;101359.44;5270835;28;20047;-70
2023/04/06 11:43:11;;;;;;;13.63;9.13;;;;;;;8.43;89.51;101361.25;5270463;28;20534;-69